sensor_id;sensor_type;location;lat;lon;timestamp;P1;durP1;ratioP1;P2;durP2;ratioP2
49998;SDS011;68071;45.062;7.356;2023-08-30T00:00:25;0.13;;;0.10;;
49998;SDS011;68071;45.062;7.356;2023-08-30T00:03:29;1.67;;;0.35;;
49998;SDS011;68071;45.062;7.356;2023-08-30T00:06:33;0.52;;;0.35;;
49998;SDS011;68071;45.062;7.356;2023-08-30T00:09:37;1.15;;;0.28;;
49998;SDS011;68071;45.062;7.356;2023-08-30T00:12:41;0.65;;;0.22;;
49998;SDS011;68071;45.062;7.356;2023-08-30T00:15:45;0.95;;;0.30;;
49998;SDS011;68071;45.062;7.356;2023-08-30T00:18:49;0.50;;;0.15;;
49998;SDS011;68071;45.062;7.356;2023-08-30T00:21:52;1.58;;;0.32;;
49998;SDS011;68071;45.062;7.356;2023-08-30T00:24:58;0.77;;;0.30;;
49998;SDS011;68071;45.062;7.356;2023-08-30T00:28:02;0.68;;;0.35;;
49998;SDS011;68071;45.062;7.356;2023-08-30T00:31:06;1.33;;;0.57;;
49998;SDS011;68071;45.062;7.356;2023-08-30T00:34:10;1.35;;;0.40;;
49998;SDS011;68071;45.062;7.356;2023-08-30T00:37:14;0.50;;;0.30;;
49998;SDS011;68071;45.062;7.356;2023-08-30T00:40:18;1.15;;;0.50;;
49998;SDS011;68071;45.062;7.356;2023-08-30T00:43:27;0.60;;;0.45;;
49998;SDS011;68071;45.062;7.356;2023-08-30T00:46:32;1.00;;;0.40;;
49998;SDS011;68071;45.062;7.356;2023-08-30T00:49:37;1.27;;;0.50;;
49998;SDS011;68071;45.062;7.356;2023-08-30T00:52:41;0.57;;;0.35;;
49998;SDS011;68071;45.062;7.356;2023-08-30T00:55:45;0.55;;;0.30;;
49998;SDS011;68071;45.062;7.356;2023-08-30T00:58:49;0.60;;;0.40;;
49998;SDS011;68071;45.062;7.356;2023-08-30T01:07:38;1.08;;;0.47;;
49998;SDS011;68071;45.062;7.356;2023-08-30T01:14:13;2.33;;;0.70;;
49998;SDS011;68071;45.062;7.356;2023-08-30T01:17:22;1.30;;;0.40;;
49998;SDS011;68071;45.062;7.356;2023-08-30T01:28:16;1.10;;;0.80;;
49998;SDS011;68071;45.062;7.356;2023-08-30T01:31:23;0.60;;;0.40;;
49998;SDS011;68071;45.062;7.356;2023-08-30T01:34:29;1.75;;;0.50;;
49998;SDS011;68071;45.062;7.356;2023-08-30T01:37:36;0.90;;;0.45;;
49998;SDS011;68071;45.062;7.356;2023-08-30T01:40:43;1.08;;;0.40;;
49998;SDS011;68071;45.062;7.356;2023-08-30T01:43:48;1.95;;;0.60;;
49998;SDS011;68071;45.062;7.356;2023-08-30T01:46:54;1.90;;;0.70;;
49998;SDS011;68071;45.062;7.356;2023-08-30T01:49:59;1.10;;;0.40;;
49998;SDS011;68071;45.062;7.356;2023-08-30T01:53:04;1.00;;;0.50;;
49998;SDS011;68071;45.062;7.356;2023-08-30T01:56:09;1.33;;;0.50;;
49998;SDS011;68071;45.062;7.356;2023-08-30T01:59:13;0.80;;;0.50;;
49998;SDS011;68071;45.062;7.356;2023-08-30T02:02:18;0.68;;;0.40;;
49998;SDS011;68071;45.062;7.356;2023-08-30T02:05:21;1.65;;;0.65;;
49998;SDS011;68071;45.062;7.356;2023-08-30T02:08:26;1.00;;;0.57;;
49998;SDS011;68071;45.062;7.356;2023-08-30T02:11:38;1.30;;;0.40;;
49998;SDS011;68071;45.062;7.356;2023-08-30T02:14:47;0.65;;;0.40;;
49998;SDS011;68071;45.062;7.356;2023-08-30T02:17:53;0.95;;;0.50;;
49998;SDS011;68071;45.062;7.356;2023-08-30T02:20:59;1.00;;;0.50;;
49998;SDS011;68071;45.062;7.356;2023-08-30T02:24:03;1.15;;;0.70;;
49998;SDS011;68071;45.062;7.356;2023-08-30T02:27:08;1.75;;;0.65;;
49998;SDS011;68071;45.062;7.356;2023-08-30T02:30:12;1.23;;;0.60;;
49998;SDS011;68071;45.062;7.356;2023-08-30T02:33:16;1.38;;;0.60;;
49998;SDS011;68071;45.062;7.356;2023-08-30T02:36:21;0.60;;;0.43;;
49998;SDS011;68071;45.062;7.356;2023-08-30T02:39:25;1.65;;;0.50;;
49998;SDS011;68071;45.062;7.356;2023-08-30T02:42:29;0.80;;;0.47;;
49998;SDS011;68071;45.062;7.356;2023-08-30T02:45:33;0.75;;;0.38;;
49998;SDS011;68071;45.062;7.356;2023-08-30T02:48:37;0.60;;;0.28;;
49998;SDS011;68071;45.062;7.356;2023-08-30T02:51:41;0.45;;;0.25;;
49998;SDS011;68071;45.062;7.356;2023-08-30T02:54:45;0.65;;;0.43;;
49998;SDS011;68071;45.062;7.356;2023-08-30T02:57:49;0.70;;;0.40;;
49998;SDS011;68071;45.062;7.356;2023-08-30T03:00:54;0.80;;;0.40;;
49998;SDS011;68071;45.062;7.356;2023-08-30T03:03:57;0.55;;;0.50;;
49998;SDS011;68071;45.062;7.356;2023-08-30T03:07:01;0.80;;;0.50;;
49998;SDS011;68071;45.062;7.356;2023-08-30T03:10:07;1.10;;;0.60;;
49998;SDS011;68071;45.062;7.356;2023-08-30T03:13:11;1.13;;;0.60;;
49998;SDS011;68071;45.062;7.356;2023-08-30T03:16:16;1.02;;;0.60;;
49998;SDS011;68071;45.062;7.356;2023-08-30T03:19:20;0.98;;;0.60;;
49998;SDS011;68071;45.062;7.356;2023-08-30T03:22:24;2.35;;;0.60;;
49998;SDS011;68071;45.062;7.356;2023-08-30T03:25:31;0.70;;;0.40;;
49998;SDS011;68071;45.062;7.356;2023-08-30T03:28:36;1.10;;;0.70;;
49998;SDS011;68071;45.062;7.356;2023-08-30T03:31:41;0.93;;;0.60;;
49998;SDS011;68071;45.062;7.356;2023-08-30T03:34:48;0.52;;;0.40;;
49998;SDS011;68071;45.062;7.356;2023-08-30T03:37:52;2.30;;;0.60;;
49998;SDS011;68071;45.062;7.356;2023-08-30T03:40:56;0.60;;;0.50;;
49998;SDS011;68071;45.062;7.356;2023-08-30T03:44:00;0.82;;;0.57;;
49998;SDS011;68071;45.062;7.356;2023-08-30T03:47:04;2.80;;;0.65;;
49998;SDS011;68071;45.062;7.356;2023-08-30T03:50:09;2.93;;;0.70;;
49998;SDS011;68071;45.062;7.356;2023-08-30T03:53:13;1.23;;;0.50;;
49998;SDS011;68071;45.062;7.356;2023-08-30T03:56:17;1.65;;;0.73;;
49998;SDS011;68071;45.062;7.356;2023-08-30T03:59:22;0.82;;;0.50;;
49998;SDS011;68071;45.062;7.356;2023-08-30T04:02:26;0.82;;;0.57;;
49998;SDS011;68071;45.062;7.356;2023-08-30T04:05:33;1.52;;;0.52;;
49998;SDS011;68071;45.062;7.356;2023-08-30T04:08:37;0.95;;;0.50;;
49998;SDS011;68071;45.062;7.356;2023-08-30T04:11:41;1.75;;;0.60;;
49998;SDS011;68071;45.062;7.356;2023-08-30T04:14:46;0.70;;;0.40;;
49998;SDS011;68071;45.062;7.356;2023-08-30T04:17:50;1.40;;;0.77;;
49998;SDS011;68071;45.062;7.356;2023-08-30T04:20:54;1.00;;;0.60;;
49998;SDS011;68071;45.062;7.356;2023-08-30T04:23:58;1.50;;;0.60;;
49998;SDS011;68071;45.062;7.356;2023-08-30T04:27:02;1.83;;;0.73;;
49998;SDS011;68071;45.062;7.356;2023-08-30T04:30:05;0.88;;;0.60;;
49998;SDS011;68071;45.062;7.356;2023-08-30T04:33:10;0.60;;;0.45;;
49998;SDS011;68071;45.062;7.356;2023-08-30T04:36:14;0.95;;;0.63;;
49998;SDS011;68071;45.062;7.356;2023-08-30T04:39:18;0.95;;;0.45;;
49998;SDS011;68071;45.062;7.356;2023-08-30T04:42:22;1.27;;;0.65;;
49998;SDS011;68071;45.062;7.356;2023-08-30T04:45:26;0.98;;;0.45;;
49998;SDS011;68071;45.062;7.356;2023-08-30T04:48:31;1.75;;;0.75;;
49998;SDS011;68071;45.062;7.356;2023-08-30T04:51:36;0.80;;;0.40;;
49998;SDS011;68071;45.062;7.356;2023-08-30T04:54:40;0.65;;;0.40;;
49998;SDS011;68071;45.062;7.356;2023-08-30T04:57:45;0.65;;;0.40;;
49998;SDS011;68071;45.062;7.356;2023-08-30T05:00:55;1.48;;;0.60;;
49998;SDS011;68071;45.062;7.356;2023-08-30T05:04:00;0.73;;;0.50;;
49998;SDS011;68071;45.062;7.356;2023-08-30T05:07:05;1.00;;;0.50;;
49998;SDS011;68071;45.062;7.356;2023-08-30T05:10:09;1.77;;;0.50;;
49998;SDS011;68071;45.062;7.356;2023-08-30T05:13:15;1.42;;;0.40;;
49998;SDS011;68071;45.062;7.356;2023-08-30T05:16:20;1.30;;;0.52;;
49998;SDS011;68071;45.062;7.356;2023-08-30T05:23:53;0.77;;;0.40;;
49998;SDS011;68071;45.062;7.356;2023-08-30T05:26:57;0.80;;;0.50;;
49998;SDS011;68071;45.062;7.356;2023-08-30T05:30:03;0.95;;;0.50;;
49998;SDS011;68071;45.062;7.356;2023-08-30T05:33:08;1.30;;;0.70;;
49998;SDS011;68071;45.062;7.356;2023-08-30T05:36:20;2.15;;;0.60;;
49998;SDS011;68071;45.062;7.356;2023-08-30T05:39:39;0.95;;;0.70;;
49998;SDS011;68071;45.062;7.356;2023-08-30T05:42:43;0.90;;;0.60;;
49998;SDS011;68071;45.062;7.356;2023-08-30T05:45:48;1.10;;;0.70;;
49998;SDS011;68071;45.062;7.356;2023-08-30T05:48:52;1.63;;;0.68;;
49998;SDS011;68071;45.062;7.356;2023-08-30T05:51:57;1.20;;;0.50;;
49998;SDS011;68071;45.062;7.356;2023-08-30T05:55:01;1.52;;;0.60;;
49998;SDS011;68071;45.062;7.356;2023-08-30T05:58:06;1.60;;;0.60;;
49998;SDS011;68071;45.062;7.356;2023-08-30T06:01:09;2.90;;;1.75;;
49998;SDS011;68071;45.062;7.356;2023-08-30T06:04:14;0.80;;;0.60;;
49998;SDS011;68071;45.062;7.356;2023-08-30T06:07:17;1.65;;;0.60;;
49998;SDS011;68071;45.062;7.356;2023-08-30T06:10:21;0.77;;;0.52;;
49998;SDS011;68071;45.062;7.356;2023-08-30T06:13:27;0.70;;;0.40;;
49998;SDS011;68071;45.062;7.356;2023-08-30T06:16:30;0.95;;;0.60;;
49998;SDS011;68071;45.062;7.356;2023-08-30T06:19:35;1.15;;;0.70;;
49998;SDS011;68071;45.062;7.356;2023-08-30T06:22:39;1.42;;;0.70;;
49998;SDS011;68071;45.062;7.356;2023-08-30T06:25:56;1.27;;;0.40;;
49998;SDS011;68071;45.062;7.356;2023-08-30T06:29:00;1.25;;;0.50;;
49998;SDS011;68071;45.062;7.356;2023-08-30T06:32:04;0.98;;;0.70;;
49998;SDS011;68071;45.062;7.356;2023-08-30T06:35:08;1.45;;;0.52;;
49998;SDS011;68071;45.062;7.356;2023-08-30T06:38:12;0.52;;;0.50;;
49998;SDS011;68071;45.062;7.356;2023-08-30T06:41:16;0.88;;;0.60;;
49998;SDS011;68071;45.062;7.356;2023-08-30T06:44:20;1.33;;;0.50;;
49998;SDS011;68071;45.062;7.356;2023-08-30T06:47:25;1.88;;;0.77;;
49998;SDS011;68071;45.062;7.356;2023-08-30T06:50:29;1.00;;;0.60;;
49998;SDS011;68071;45.062;7.356;2023-08-30T06:53:33;2.28;;;0.80;;
49998;SDS011;68071;45.062;7.356;2023-08-30T06:56:37;1.40;;;0.70;;
49998;SDS011;68071;45.062;7.356;2023-08-30T06:59:41;1.30;;;0.80;;
49998;SDS011;68071;45.062;7.356;2023-08-30T07:02:45;0.85;;;0.50;;
49998;SDS011;68071;45.062;7.356;2023-08-30T07:05:50;1.30;;;0.47;;
49998;SDS011;68071;45.062;7.356;2023-08-30T07:08:55;1.48;;;0.32;;
49998;SDS011;68071;45.062;7.356;2023-08-30T07:11:59;0.77;;;0.40;;
49998;SDS011;68071;45.062;7.356;2023-08-30T07:15:03;1.33;;;0.45;;
49998;SDS011;68071;45.062;7.356;2023-08-30T07:18:08;0.75;;;0.43;;
49998;SDS011;68071;45.062;7.356;2023-08-30T07:21:13;0.82;;;0.40;;
49998;SDS011;68071;45.062;7.356;2023-08-30T07:24:16;0.30;;;0.20;;
49998;SDS011;68071;45.062;7.356;2023-08-30T07:27:21;0.85;;;0.40;;
49998;SDS011;68071;45.062;7.356;2023-08-30T07:30:25;0.80;;;0.30;;
49998;SDS011;68071;45.062;7.356;2023-08-30T07:33:30;0.60;;;0.30;;
49998;SDS011;68071;45.062;7.356;2023-08-30T07:36:34;0.38;;;0.30;;
49998;SDS011;68071;45.062;7.356;2023-08-30T07:39:37;1.25;;;0.40;;
49998;SDS011;68071;45.062;7.356;2023-08-30T07:42:41;0.93;;;0.32;;
49998;SDS011;68071;45.062;7.356;2023-08-30T07:45:45;0.60;;;0.20;;
49998;SDS011;68071;45.062;7.356;2023-08-30T07:48:49;0.50;;;0.30;;
49998;SDS011;68071;45.062;7.356;2023-08-30T07:51:53;0.55;;;0.30;;
49998;SDS011;68071;45.062;7.356;2023-08-30T07:54:57;0.43;;;0.30;;
49998;SDS011;68071;45.062;7.356;2023-08-30T07:58:01;0.60;;;0.28;;
49998;SDS011;68071;45.062;7.356;2023-08-30T08:01:06;0.90;;;0.30;;
49998;SDS011;68071;45.062;7.356;2023-08-30T08:04:10;0.82;;;0.40;;
49998;SDS011;68071;45.062;7.356;2023-08-30T08:07:14;1.20;;;0.50;;
49998;SDS011;68071;45.062;7.356;2023-08-30T08:10:19;2.92;;;0.70;;
49998;SDS011;68071;45.062;7.356;2023-08-30T08:13:23;1.80;;;0.70;;
49998;SDS011;68071;45.062;7.356;2023-08-30T08:16:28;1.52;;;0.60;;
49998;SDS011;68071;45.062;7.356;2023-08-30T08:19:32;0.80;;;0.40;;
49998;SDS011;68071;45.062;7.356;2023-08-30T08:22:35;0.40;;;0.40;;
49998;SDS011;68071;45.062;7.356;2023-08-30T08:25:39;0.65;;;0.30;;
49998;SDS011;68071;45.062;7.356;2023-08-30T08:28:43;1.27;;;0.40;;
49998;SDS011;68071;45.062;7.356;2023-08-30T08:31:47;0.57;;;0.22;;
49998;SDS011;68071;45.062;7.356;2023-08-30T08:34:52;0.60;;;0.22;;
49998;SDS011;68071;45.062;7.356;2023-08-30T08:37:56;0.50;;;0.35;;
49998;SDS011;68071;45.062;7.356;2023-08-30T08:41:05;1.02;;;0.30;;
49998;SDS011;68071;45.062;7.356;2023-08-30T08:44:10;1.75;;;1.10;;
49998;SDS011;68071;45.062;7.356;2023-08-30T08:47:16;3.78;;;1.10;;
49998;SDS011;68071;45.062;7.356;2023-08-30T08:50:21;1.25;;;0.60;;
49998;SDS011;68071;45.062;7.356;2023-08-30T08:53:25;1.30;;;0.85;;
49998;SDS011;68071;45.062;7.356;2023-08-30T08:56:32;1.93;;;0.70;;
49998;SDS011;68071;45.062;7.356;2023-08-30T08:59:37;1.25;;;0.60;;
49998;SDS011;68071;45.062;7.356;2023-08-30T09:02:41;1.92;;;0.60;;
49998;SDS011;68071;45.062;7.356;2023-08-30T09:05:46;1.48;;;0.57;;
49998;SDS011;68071;45.062;7.356;2023-08-30T09:08:51;0.60;;;0.40;;
49998;SDS011;68071;45.062;7.356;2023-08-30T09:11:56;0.53;;;0.37;;
49998;SDS011;68071;45.062;7.356;2023-08-30T09:15:00;0.87;;;0.33;;
49998;SDS011;68071;45.062;7.356;2023-08-30T09:21:49;0.40;;;0.30;;
49998;SDS011;68071;45.062;7.356;2023-08-30T09:24:55;1.60;;;0.80;;
49998;SDS011;68071;45.062;7.356;2023-08-30T09:27:58;2.88;;;1.40;;
49998;SDS011;68071;45.062;7.356;2023-08-30T09:31:06;1.63;;;0.82;;
49998;SDS011;68071;45.062;7.356;2023-08-30T09:34:10;1.70;;;0.80;;
49998;SDS011;68071;45.062;7.356;2023-08-30T09:37:21;1.25;;;0.70;;
49998;SDS011;68071;45.062;7.356;2023-08-30T09:40:26;2.00;;;0.60;;
49998;SDS011;68071;45.062;7.356;2023-08-30T09:43:31;2.03;;;0.80;;
49998;SDS011;68071;45.062;7.356;2023-08-30T09:46:55;1.77;;;0.80;;
49998;SDS011;68071;45.062;7.356;2023-08-30T09:50:00;0.60;;;0.20;;
49998;SDS011;68071;45.062;7.356;2023-08-30T09:53:07;0.80;;;0.30;;
49998;SDS011;68071;45.062;7.356;2023-08-30T09:56:15;1.00;;;0.30;;
49998;SDS011;68071;45.062;7.356;2023-08-30T09:59:21;0.73;;;0.32;;
49998;SDS011;68071;45.062;7.356;2023-08-30T10:02:25;1.65;;;0.55;;
49998;SDS011;68071;45.062;7.356;2023-08-30T10:05:30;1.30;;;0.33;;
49998;SDS011;68071;45.062;7.356;2023-08-30T10:11:40;0.73;;;0.40;;
49998;SDS011;68071;45.062;7.356;2023-08-30T10:14:44;1.13;;;0.40;;
49998;SDS011;68071;45.062;7.356;2023-08-30T10:17:48;0.80;;;0.40;;
49998;SDS011;68071;45.062;7.356;2023-08-30T10:20:57;0.88;;;0.30;;
49998;SDS011;68071;45.062;7.356;2023-08-30T10:24:02;1.33;;;0.30;;
49998;SDS011;68071;45.062;7.356;2023-08-30T10:27:09;0.40;;;0.20;;
49998;SDS011;68071;45.062;7.356;2023-08-30T10:30:15;0.95;;;0.30;;
49998;SDS011;68071;45.062;7.356;2023-08-30T10:33:21;0.95;;;0.40;;
49998;SDS011;68071;45.062;7.356;2023-08-30T10:36:29;0.52;;;0.25;;
49998;SDS011;68071;45.062;7.356;2023-08-30T10:39:33;0.80;;;0.43;;
49998;SDS011;68071;45.062;7.356;2023-08-30T10:42:44;0.70;;;0.40;;
49998;SDS011;68071;45.062;7.356;2023-08-30T10:45:57;0.95;;;0.20;;
49998;SDS011;68071;45.062;7.356;2023-08-30T10:49:11;1.02;;;0.28;;
49998;SDS011;68071;45.062;7.356;2023-08-30T10:52:18;0.60;;;0.30;;
49998;SDS011;68071;45.062;7.356;2023-08-30T10:55:23;1.13;;;0.45;;
49998;SDS011;68071;45.062;7.356;2023-08-30T10:58:38;0.90;;;0.30;;
49998;SDS011;68071;45.062;7.356;2023-08-30T11:01:43;0.65;;;0.32;;
49998;SDS011;68071;45.062;7.356;2023-08-30T11:04:48;0.57;;;0.20;;
49998;SDS011;68071;45.062;7.356;2023-08-30T11:07:53;0.88;;;0.20;;
49998;SDS011;68071;45.062;7.356;2023-08-30T11:11:04;0.70;;;0.30;;
49998;SDS011;68071;45.062;7.356;2023-08-30T11:14:12;1.88;;;0.35;;
49998;SDS011;68071;45.062;7.356;2023-08-30T11:17:16;0.40;;;0.20;;
49998;SDS011;68071;45.062;7.356;2023-08-30T11:20:20;0.45;;;0.30;;
49998;SDS011;68071;45.062;7.356;2023-08-30T11:23:24;0.32;;;0.20;;
49998;SDS011;68071;45.062;7.356;2023-08-30T11:26:28;0.77;;;0.30;;
49998;SDS011;68071;45.062;7.356;2023-08-30T11:29:32;0.70;;;0.30;;
49998;SDS011;68071;45.062;7.356;2023-08-30T11:32:41;1.17;;;0.22;;
49998;SDS011;68071;45.062;7.356;2023-08-30T11:35:49;0.63;;;0.30;;
49998;SDS011;68071;45.062;7.356;2023-08-30T11:38:55;0.70;;;0.30;;
49998;SDS011;68071;45.062;7.356;2023-08-30T11:42:00;0.63;;;0.20;;
49998;SDS011;68071;45.062;7.356;2023-08-30T11:45:08;1.17;;;0.38;;
49998;SDS011;68071;45.062;7.356;2023-08-30T11:51:20;0.45;;;0.28;;
49998;SDS011;68071;45.062;7.356;2023-08-30T11:54:24;2.10;;;0.20;;
49998;SDS011;68071;45.062;7.356;2023-08-30T11:57:32;1.13;;;0.30;;
49998;SDS011;68071;45.062;7.356;2023-08-30T12:00:37;1.50;;;0.30;;
49998;SDS011;68071;45.062;7.356;2023-08-30T12:03:42;0.40;;;0.20;;
49998;SDS011;68071;45.062;7.356;2023-08-30T12:06:52;0.60;;;0.30;;
49998;SDS011;68071;45.062;7.356;2023-08-30T12:10:09;0.50;;;0.22;;
49998;SDS011;68071;45.062;7.356;2023-08-30T12:13:24;0.68;;;0.30;;
49998;SDS011;68071;45.062;7.356;2023-08-30T12:16:29;0.57;;;0.30;;
49998;SDS011;68071;45.062;7.356;2023-08-30T12:19:34;0.75;;;0.20;;
49998;SDS011;68071;45.062;7.356;2023-08-30T12:22:38;1.38;;;0.10;;
49998;SDS011;68071;45.062;7.356;2023-08-30T12:28:47;0.57;;;0.20;;
49998;SDS011;68071;45.062;7.356;2023-08-30T12:31:50;0.75;;;0.20;;
49998;SDS011;68071;45.062;7.356;2023-08-30T12:34:54;1.27;;;0.20;;
49998;SDS011;68071;45.062;7.356;2023-08-30T12:37:59;0.52;;;0.22;;
49998;SDS011;68071;45.062;7.356;2023-08-30T12:41:03;0.43;;;0.20;;
49998;SDS011;68071;45.062;7.356;2023-08-30T12:44:07;0.70;;;0.27;;
49998;SDS011;68071;45.062;7.356;2023-08-30T12:47:11;0.95;;;0.17;;
49998;SDS011;68071;45.062;7.356;2023-08-30T12:50:17;1.52;;;0.35;;
49998;SDS011;68071;45.062;7.356;2023-08-30T12:53:21;0.55;;;0.20;;
49998;SDS011;68071;45.062;7.356;2023-08-30T12:56:25;0.95;;;0.20;;
49998;SDS011;68071;45.062;7.356;2023-08-30T12:59:30;0.47;;;0.20;;
49998;SDS011;68071;45.062;7.356;2023-08-30T13:02:34;0.43;;;0.20;;
49998;SDS011;68071;45.062;7.356;2023-08-30T13:05:38;0.38;;;0.13;;
49998;SDS011;68071;45.062;7.356;2023-08-30T13:08:42;1.02;;;0.20;;
49998;SDS011;68071;45.062;7.356;2023-08-30T13:11:46;0.22;;;0.10;;
49998;SDS011;68071;45.062;7.356;2023-08-30T13:14:51;0.57;;;0.20;;
49998;SDS011;68071;45.062;7.356;2023-08-30T13:17:55;0.93;;;0.20;;
49998;SDS011;68071;45.062;7.356;2023-08-30T13:20:59;0.70;;;0.23;;
49998;SDS011;68071;45.062;7.356;2023-08-30T13:24:03;0.50;;;0.25;;
49998;SDS011;68071;45.062;7.356;2023-08-30T13:27:08;0.55;;;0.20;;
49998;SDS011;68071;45.062;7.356;2023-08-30T13:30:12;0.50;;;0.20;;
49998;SDS011;68071;45.062;7.356;2023-08-30T13:33:16;1.35;;;0.22;;
49998;SDS011;68071;45.062;7.356;2023-08-30T13:36:20;1.73;;;0.25;;
49998;SDS011;68071;45.062;7.356;2023-08-30T13:39:24;0.47;;;0.20;;
49998;SDS011;68071;45.062;7.356;2023-08-30T13:42:28;0.40;;;0.10;;
49998;SDS011;68071;45.062;7.356;2023-08-30T13:45:31;0.60;;;0.30;;
49998;SDS011;68071;45.062;7.356;2023-08-30T13:48:36;0.52;;;0.10;;
49998;SDS011;68071;45.062;7.356;2023-08-30T13:51:40;0.65;;;0.20;;
49998;SDS011;68071;45.062;7.356;2023-08-30T13:54:43;0.50;;;0.20;;
49998;SDS011;68071;45.062;7.356;2023-08-30T13:57:47;0.22;;;0.10;;
49998;SDS011;68071;45.062;7.356;2023-08-30T14:00:51;0.40;;;0.10;;
49998;SDS011;68071;45.062;7.356;2023-08-30T14:03:55;0.20;;;0.10;;
49998;SDS011;68071;45.062;7.356;2023-08-30T14:06:59;0.30;;;0.10;;
49998;SDS011;68071;45.062;7.356;2023-08-30T14:10:03;0.28;;;0.10;;
49998;SDS011;68071;45.062;7.356;2023-08-30T14:13:14;0.43;;;0.17;;
49998;SDS011;68071;45.062;7.356;2023-08-30T14:16:18;0.40;;;0.10;;
49998;SDS011;68071;45.062;7.356;2023-08-30T14:19:26;0.38;;;0.10;;
49998;SDS011;68071;45.062;7.356;2023-08-30T14:22:30;0.20;;;0.10;;
49998;SDS011;68071;45.062;7.356;2023-08-30T14:25:33;1.15;;;0.25;;
49998;SDS011;68071;45.062;7.356;2023-08-30T14:28:38;0.93;;;0.20;;
49998;SDS011;68071;45.062;7.356;2023-08-30T14:31:43;0.20;;;0.17;;
49998;SDS011;68071;45.062;7.356;2023-08-30T14:34:47;0.40;;;0.20;;
49998;SDS011;68071;45.062;7.356;2023-08-30T14:37:51;0.93;;;0.20;;
49998;SDS011;68071;45.062;7.356;2023-08-30T14:40:59;0.28;;;0.10;;
49998;SDS011;68071;45.062;7.356;2023-08-30T14:44:04;0.57;;;0.20;;
49998;SDS011;68071;45.062;7.356;2023-08-30T14:47:08;1.10;;;0.52;;
49998;SDS011;68071;45.062;7.356;2023-08-30T14:50:12;2.47;;;1.37;;
49998;SDS011;68071;45.062;7.356;2023-08-30T14:53:16;0.40;;;0.13;;
49998;SDS011;68071;45.062;7.356;2023-08-30T14:56:21;0.50;;;0.15;;
49998;SDS011;68071;45.062;7.356;2023-08-30T14:59:24;0.45;;;0.20;;
49998;SDS011;68071;45.062;7.356;2023-08-30T15:02:28;0.97;;;0.10;;
49998;SDS011;68071;45.062;7.356;2023-08-30T15:05:34;0.30;;;0.20;;
49998;SDS011;68071;45.062;7.356;2023-08-30T15:08:38;0.52;;;0.20;;
49998;SDS011;68071;45.062;7.356;2023-08-30T15:11:43;0.30;;;0.20;;
49998;SDS011;68071;45.062;7.356;2023-08-30T15:14:48;0.68;;;0.20;;
49998;SDS011;68071;45.062;7.356;2023-08-30T15:17:52;0.93;;;0.20;;
49998;SDS011;68071;45.062;7.356;2023-08-30T15:20:56;0.57;;;0.20;;
49998;SDS011;68071;45.062;7.356;2023-08-30T15:24:00;0.30;;;0.10;;
49998;SDS011;68071;45.062;7.356;2023-08-30T15:27:04;0.75;;;0.22;;
49998;SDS011;68071;45.062;7.356;2023-08-30T15:30:08;0.40;;;0.10;;
49998;SDS011;68071;45.062;7.356;2023-08-30T15:33:13;0.68;;;0.20;;
49998;SDS011;68071;45.062;7.356;2023-08-30T15:36:17;1.05;;;0.40;;
49998;SDS011;68071;45.062;7.356;2023-08-30T15:39:21;0.93;;;0.40;;
49998;SDS011;68071;45.062;7.356;2023-08-30T15:42:25;0.70;;;0.30;;
49998;SDS011;68071;45.062;7.356;2023-08-30T15:45:29;0.50;;;0.20;;
49998;SDS011;68071;45.062;7.356;2023-08-30T15:48:34;0.35;;;0.10;;
49998;SDS011;68071;45.062;7.356;2023-08-30T15:51:38;0.35;;;0.10;;
49998;SDS011;68071;45.062;7.356;2023-08-30T15:54:42;0.13;;;0.10;;
49998;SDS011;68071;45.062;7.356;2023-08-30T15:57:46;0.50;;;0.10;;
49998;SDS011;68071;45.062;7.356;2023-08-30T16:00:51;1.00;;;0.10;;
49998;SDS011;68071;45.062;7.356;2023-08-30T16:03:56;0.45;;;0.28;;
49998;SDS011;68071;45.062;7.356;2023-08-30T16:07:00;0.75;;;0.30;;
49998;SDS011;68071;45.062;7.356;2023-08-30T16:10:04;0.77;;;0.20;;
49998;SDS011;68071;45.062;7.356;2023-08-30T16:13:10;1.20;;;0.40;;
49998;SDS011;68071;45.062;7.356;2023-08-30T16:16:14;0.60;;;0.40;;
49998;SDS011;68071;45.062;7.356;2023-08-30T16:19:18;0.77;;;0.20;;
49998;SDS011;68071;45.062;7.356;2023-08-30T16:22:27;1.55;;;0.68;;
49998;SDS011;68071;45.062;7.356;2023-08-30T16:25:31;1.00;;;0.73;;
49998;SDS011;68071;45.062;7.356;2023-08-30T16:28:35;1.20;;;0.70;;
49998;SDS011;68071;45.062;7.356;2023-08-30T16:31:39;1.17;;;0.80;;
49998;SDS011;68071;45.062;7.356;2023-08-30T16:34:43;1.92;;;0.55;;
49998;SDS011;68071;45.062;7.356;2023-08-30T16:37:52;0.93;;;0.52;;
49998;SDS011;68071;45.062;7.356;2023-08-30T16:40:56;2.15;;;0.88;;
49998;SDS011;68071;45.062;7.356;2023-08-30T16:44:10;1.00;;;0.50;;
49998;SDS011;68071;45.062;7.356;2023-08-30T16:47:14;1.42;;;0.50;;
49998;SDS011;68071;45.062;7.356;2023-08-30T16:50:18;1.02;;;0.40;;
49998;SDS011;68071;45.062;7.356;2023-08-30T16:53:22;1.75;;;0.60;;
49998;SDS011;68071;45.062;7.356;2023-08-30T16:56:27;2.20;;;0.63;;
49998;SDS011;68071;45.062;7.356;2023-08-30T16:59:31;1.67;;;0.90;;
49998;SDS011;68071;45.062;7.356;2023-08-30T17:02:35;1.30;;;1.05;;
49998;SDS011;68071;45.062;7.356;2023-08-30T17:05:40;2.78;;;1.15;;
49998;SDS011;68071;45.062;7.356;2023-08-30T17:08:44;1.90;;;0.38;;
49998;SDS011;68071;45.062;7.356;2023-08-30T17:11:48;1.42;;;0.60;;
49998;SDS011;68071;45.062;7.356;2023-08-30T17:14:51;1.33;;;0.68;;
49998;SDS011;68071;45.062;7.356;2023-08-30T17:17:55;1.08;;;0.60;;
49998;SDS011;68071;45.062;7.356;2023-08-30T17:20:59;0.93;;;0.35;;
49998;SDS011;68071;45.062;7.356;2023-08-30T17:24:04;1.17;;;0.50;;
49998;SDS011;68071;45.062;7.356;2023-08-30T17:27:09;2.65;;;1.08;;
49998;SDS011;68071;45.062;7.356;2023-08-30T17:30:14;1.88;;;1.00;;
49998;SDS011;68071;45.062;7.356;2023-08-30T17:33:20;1.85;;;0.70;;
49998;SDS011;68071;45.062;7.356;2023-08-30T17:36:24;2.72;;;0.60;;
49998;SDS011;68071;45.062;7.356;2023-08-30T17:39:27;1.40;;;0.80;;
49998;SDS011;68071;45.062;7.356;2023-08-30T17:42:31;2.03;;;0.50;;
49998;SDS011;68071;45.062;7.356;2023-08-30T17:45:35;2.65;;;1.02;;
49998;SDS011;68071;45.062;7.356;2023-08-30T17:48:39;0.85;;;0.55;;
49998;SDS011;68071;45.062;7.356;2023-08-30T17:51:45;1.15;;;0.47;;
49998;SDS011;68071;45.062;7.356;2023-08-30T17:54:50;1.40;;;0.45;;
49998;SDS011;68071;45.062;7.356;2023-08-30T17:57:54;1.58;;;0.60;;
49998;SDS011;68071;45.062;7.356;2023-08-30T18:01:00;2.70;;;0.90;;
49998;SDS011;68071;45.062;7.356;2023-08-30T18:04:04;1.98;;;1.05;;
49998;SDS011;68071;45.062;7.356;2023-08-30T18:07:09;1.42;;;1.02;;
49998;SDS011;68071;45.062;7.356;2023-08-30T18:10:13;1.77;;;0.57;;
49998;SDS011;68071;45.062;7.356;2023-08-30T18:13:17;1.70;;;0.63;;
49998;SDS011;68071;45.062;7.356;2023-08-30T18:16:21;1.10;;;0.73;;
49998;SDS011;68071;45.062;7.356;2023-08-30T18:24:12;2.80;;;0.60;;
49998;SDS011;68071;45.062;7.356;2023-08-30T18:27:17;1.05;;;0.60;;
49998;SDS011;68071;45.062;7.356;2023-08-30T18:30:21;1.33;;;0.43;;
49998;SDS011;68071;45.062;7.356;2023-08-30T18:33:25;1.40;;;0.40;;
49998;SDS011;68071;45.062;7.356;2023-08-30T18:36:29;1.52;;;0.50;;
49998;SDS011;68071;45.062;7.356;2023-08-30T18:39:33;1.50;;;0.52;;
49998;SDS011;68071;45.062;7.356;2023-08-30T18:42:38;1.03;;;0.60;;
49998;SDS011;68071;45.062;7.356;2023-08-30T18:45:43;0.90;;;0.40;;
49998;SDS011;68071;45.062;7.356;2023-08-30T18:48:48;1.17;;;0.50;;
49998;SDS011;68071;45.062;7.356;2023-08-30T18:51:55;1.10;;;0.60;;
49998;SDS011;68071;45.062;7.356;2023-08-30T18:54:59;2.03;;;0.50;;
49998;SDS011;68071;45.062;7.356;2023-08-30T18:58:02;1.65;;;0.47;;
49998;SDS011;68071;45.062;7.356;2023-08-30T19:01:07;1.60;;;0.50;;
49998;SDS011;68071;45.062;7.356;2023-08-30T19:04:12;1.00;;;0.50;;
49998;SDS011;68071;45.062;7.356;2023-08-30T19:07:16;1.27;;;0.55;;
49998;SDS011;68071;45.062;7.356;2023-08-30T19:10:25;1.08;;;0.40;;
49998;SDS011;68071;45.062;7.356;2023-08-30T19:13:28;1.05;;;0.50;;